Time;durP1;ratioP1;P1;durP2;ratioP2;P2;SDS_P1;SDS_P2;PMS_P1;PMS_P2;Temp;Humidity;BMP_temperature;BMP_pressure;BME280_temperature;BME280_humidity;BME280_pressure;Samples;Min_cycle;Max_cycle;Signal;HPM_P1;HPM_P2
2022/06/25 00:00:36;;;;;;;3.30;1.92;;;;;;;20.69;72.29;98178.31;5095902;28;20039;-64
2022/06/25 00:03:21;;;;;;;5.05;2.30;;;;;;;20.61;72.14;98181.06;5096349;28;20141;-65
2022/06/25 00:06:06;;;;;;;4.43;2.20;;;;;;;20.62;72.55;98198.69;5081767;28;20071;-65
2022/06/25 00:08:51;;;;;;;4.78;2.20;;;;;;;20.66;72.96;98197.31;5099042;28;20036;-65
2022/06/25 00:14:38;;;;;;;6.93;2.22;;;;;;;20.35;73.76;98212.41;5111307;28;20467;-65
2022/06/25 00:17:23;;;;;;;5.32;2.20;;;;;;;20.28;74.26;98211.50;5084534;28;20044;-65
2022/06/25 00:20:09;;;;;;;3.60;2.15;;;;;;;20.23;73.78;98214.72;5110757;28;20043;-65
2022/06/25 00:22:53;;;;;;;4.82;2.15;;;;;;;20.25;72.86;98226.00;5096027;28;20600;-64
2022/06/25 00:25:38;;;;;;;3.22;1.98;;;;;;;20.30;72.79;98228.94;5111026;28;20039;-65
2022/06/25 00:28:22;;;;;;;6.32;2.00;;;;;;;20.34;74.04;98229.41;5075999;28;20103;-64
2022/06/25 00:31:07;;;;;;;6.03;2.25;;;;;;;20.39;73.73;98227.03;5096302;28;20043;-65
2022/06/25 00:33:52;;;;;;;2.67;1.80;;;;;;;20.42;73.74;98231.13;5119381;28;20043;-65
2022/06/25 00:36:37;;;;;;;3.45;2.10;;;;;;;20.13;76.98;98219.47;5112887;28;20039;-65
2022/06/25 00:39:22;;;;;;;4.03;2.47;;;;;;;19.67;81.91;98231.75;5110072;28;20039;-64
2022/06/25 00:42:13;;;;;;;4.72;2.22;;;;;;;19.72;82.21;98242.69;5110872;28;20465;-65
2022/06/25 00:44:58;;;;;;;7.60;2.28;;;;;;;19.87;82.07;98241.91;5099836;28;20432;-65
2022/06/25 00:47:43;;;;;;;4.47;2.35;;;;;;;20.13;78.36;98248.72;5111944;28;20040;-64
2022/06/25 00:50:28;;;;;;;5.30;2.13;;;;;;;20.12;80.11;98268.34;5112685;28;20055;-65
2022/06/25 00:53:15;;;;;;;6.72;2.65;;;;;;;20.07;80.00;98268.88;5115257;28;20043;-65
2022/06/25 00:56:00;;;;;;;6.07;2.40;;;;;;;20.03;79.81;98263.09;5085778;28;20088;-65
2022/06/25 00:58:45;;;;;;;4.32;2.40;;;;;;;19.98;80.22;98261.91;5099645;28;20039;-64
2022/06/25 01:01:33;;;;;;;3.10;2.20;;;;;;;19.79;82.77;98250.78;5114399;28;20096;-64
2022/06/25 01:04:18;;;;;;;4.97;2.28;;;;;;;19.44;88.57;98264.44;5114153;28;20028;-64
2022/06/25 01:07:03;;;;;;;4.10;2.17;;;;;;;19.05;94.61;98272.25;5102505;28;20032;-65
2022/06/25 01:09:49;;;;;;;4.00;1.63;;;;;;;18.79;98.73;98280.47;5103197;28;20036;-64
2022/06/25 01:12:35;;;;;;;4.68;1.73;;;;;;;18.53;100.00;98289.47;5098993;28;20486;-64
2022/06/25 01:15:20;;;;;;;4.90;1.95;;;;;;;18.35;100.00;98298.47;5098881;28;20062;-65
2022/06/25 01:18:05;;;;;;;4.28;1.83;;;;;;;18.30;100.00;98300.78;5070464;28;20110;-65
2022/06/25 01:20:50;;;;;;;2.45;1.55;;;;;;;18.16;100.00;98302.28;5072359;28;20399;-64
2022/06/25 01:23:37;;;;;;;3.17;1.60;;;;;;;18.18;100.00;98297.66;5081467;28;20360;-64
2022/06/25 01:26:22;;;;;;;4.22;1.67;;;;;;;18.27;100.00;98295.81;5063562;28;20479;-64
2022/06/25 01:29:09;;;;;;;3.30;1.77;;;;;;;18.16;100.00;98295.16;5092522;28;20090;-64
2022/06/25 01:31:54;;;;;;;2.50;1.50;;;;;;;18.05;100.00;98285.69;5083889;28;20075;-65
2022/06/25 01:34:41;;;;;;;3.35;1.50;;;;;;;18.05;100.00;98277.72;5091749;28;20031;-62
2022/06/25 01:37:26;;;;;;;3.53;1.23;;;;;;;17.94;100.00;98284.19;5092947;28;20044;-65
2022/06/25 01:40:10;;;;;;;2.38;0.98;;;;;;;17.90;100.00;98282.03;5085904;28;20074;-65
2022/06/25 01:42:58;;;;;;;2.63;1.08;;;;;;;17.79;100.00;98273.41;5089710;28;20097;-65
2022/06/25 01:45:44;;;;;;;3.08;0.95;;;;;;;17.83;100.00;98279.22;5093146;28;20101;-65
2022/06/25 01:48:29;;;;;;;4.63;0.90;;;;;;;17.80;100.00;98274.25;5078993;28;20039;-65
2022/06/25 01:51:16;;;;;;;2.25;0.90;;;;;;;17.72;100.00;98286.47;5092783;28;20036;-65
2022/06/25 01:54:01;;;;;;;1.63;0.90;;;;;;;17.58;100.00;98293.25;5092808;28;20336;-65
2022/06/25 01:56:46;;;;;;;3.35;0.70;;;;;;;17.56;100.00;98300.50;5062289;28;20107;-65
2022/06/25 01:59:31;;;;;;;3.10;1.10;;;;;;;17.53;100.00;98303.50;5092425;28;20047;-65
2022/06/25 02:02:16;;;;;;;1.63;0.85;;;;;;;17.56;100.00;98307.66;5091994;28;20113;-65
2022/06/25 02:05:01;;;;;;;1.45;0.70;;;;;;;17.55;100.00;98314.75;5092228;28;20040;-64
2022/06/25 02:07:46;;;;;;;4.15;1.10;;;;;;;17.46;100.00;98321.84;5078242;28;20139;-64
2022/06/25 02:10:35;;;;;;;1.63;0.93;;;;;;;17.33;100.00;98322.28;5089639;28;20487;-64
2022/06/25 02:13:20;;;;;;;1.50;0.93;;;;;;;17.42;100.00;98330.25;5095106;28;20048;-65
2022/06/25 02:16:05;;;;;;;2.10;0.80;;;;;;;17.44;100.00;98344.19;5084253;28;20044;-65
2022/06/25 02:18:54;;;;;;;1.60;0.80;;;;;;;17.46;100.00;98350.97;5104402;28;20060;-64
2022/06/25 02:21:38;;;;;;;4.30;0.93;;;;;;;17.48;100.00;98356.94;5074663;28;20056;-65
2022/06/25 02:24:23;;;;;;;1.58;0.90;;;;;;;17.53;100.00;98371.53;5089208;28;20074;-64
2022/06/25 02:27:09;;;;;;;1.30;0.75;;;;;;;17.56;100.00;98374.66;5088103;28;20391;-65
2022/06/25 02:29:53;;;;;;;3.08;1.00;;;;;;;17.58;100.00;98370.03;5095080;28;20459;-66
2022/06/25 02:32:38;;;;;;;2.33;0.77;;;;;;;17.52;100.00;98373.34;5091799;28;20464;-65
2022/06/25 02:35:23;;;;;;;0.93;0.68;;;;;;;17.53;100.00;98374.16;5093471;28;20097;-65
2022/06/25 02:38:09;;;;;;;2.00;0.93;;;;;;;17.57;100.00;98375.50;5060490;28;20041;-66
2022/06/25 02:40:54;;;;;;;4.00;0.60;;;;;;;17.49;100.00;98376.31;5074072;28;20472;-65
2022/06/25 02:43:42;;;;;;;1.70;0.60;;;;;;;17.49;100.00;98382.41;5091540;28;20472;-64
2022/06/25 02:46:43;;;;;;;1.75;0.60;;;;;;;17.47;100.00;98378.28;5080315;28;20036;-65
2022/06/25 02:49:28;;;;;;;1.02;0.70;;;;;;;17.36;100.00;98385.50;5090973;28;20044;-65
2022/06/25 02:52:13;;;;;;;1.33;0.70;;;;;;;17.29;100.00;98384.50;5077889;28;20051;-65
2022/06/25 02:54:57;;;;;;;1.45;0.68;;;;;;;17.34;100.00;98391.94;5071809;28;20055;-66
2022/06/25 03:00:56;;;;;;;1.05;0.52;;;;;;;17.40;100.00;98399.25;5079856;28;20036;-65
2022/06/25 03:03:41;;;;;;;2.35;0.60;;;;;;;17.32;100.00;98400.06;5073715;28;20525;-66
2022/06/25 03:06:26;;;;;;;3.05;0.45;;;;;;;17.43;100.00;98400.78;5091734;28;20040;-64
2022/06/25 03:09:11;;;;;;;2.58;0.73;;;;;;;17.40;100.00;98404.56;5101550;28;20088;-65
2022/06/25 03:11:57;;;;;;;1.05;0.43;;;;;;;17.31;100.00;98395.75;5092538;28;20040;-65
2022/06/25 03:14:41;;;;;;;0.68;0.30;;;;;;;17.29;100.00;98404.81;5053547;28;20063;-65
2022/06/25 03:17:27;;;;;;;2.58;0.45;;;;;;;17.30;100.00;98393.28;5086973;28;20040;-64
2022/06/25 03:20:32;;;;;;;2.85;0.45;;;;;;;17.23;100.00;98382.47;5098581;28;20052;-66
2022/06/25 03:23:19;;;;;;;1.38;0.40;;;;;;;17.08;100.00;98396.28;5097426;28;20050;-66
2022/06/25 03:26:05;;;;;;;1.45;0.50;;;;;;;17.07;100.00;98405.16;5068400;28;20436;-66
2022/06/25 03:28:50;;;;;;;0.32;0.20;;;;;;;17.06;100.00;98405.31;5097067;28;20043;-65
2022/06/25 03:31:36;;;;;;;2.72;0.45;;;;;;;17.04;100.00;98410.78;5073571;28;20044;-65
2022/06/25 03:34:37;;;;;;;;;;;;;;;16.96;100.00;98403.63;5084945;28;20032;-65
2022/06/25 03:37:23;;;;;;;0.50;0.10;;;;;;;16.90;100.00;98417.47;5082239;28;20010;-65
2022/06/25 03:40:08;;;;;;;0.95;0.15;;;;;;;16.85;100.00;98422.41;5082973;28;20655;-66
2022/06/25 03:42:54;;;;;;;0.43;0.10;;;;;;;16.77;100.00;98428.47;5096234;28;20031;-65
2022/06/25 03:45:38;;;;;;;0.73;0.10;;;;;;;16.52;100.00;98445.94;5097116;28;20053;-64
2022/06/25 03:48:24;;;;;;;0.20;0.10;;;;;;;16.56;100.00;98445.50;5082804;28;20032;-65
2022/06/25 03:51:28;;;;;;;1.27;0.15;;;;;;;16.42;100.00;98460.03;5100052;28;20459;-65
2022/06/25 03:54:12;;;;;;;0.73;0.22;;;;;;;16.13;100.00;98463.72;5098664;28;20035;-66
2022/06/25 03:56:57;;;;;;;0.20;0.10;;;;;;;16.18;100.00;98471.19;5080419;28;20394;-66
2022/06/25 03:59:51;;;;;;;0.05;0.00;;;;;;;16.12;100.00;98480.56;5078632;28;20039;-64
2022/06/25 04:02:43;;;;;;;0.68;0.10;;;;;;;15.98;100.00;98474.78;5088090;28;20031;-66
2022/06/25 04:05:57;;;;;;;0.32;0.10;;;;;;;15.93;100.00;98473.56;5086797;28;20064;-66
2022/06/25 04:08:54;;;;;;;1.17;0.10;;;;;;;15.99;100.00;98462.44;5083117;28;20036;-65
2022/06/25 04:11:41;;;;;;;1.35;0.10;;;;;;;15.91;100.00;98446.44;5097297;28;20543;-65
2022/06/25 04:14:25;;;;;;;0.43;0.10;;;;;;;15.72;100.00;98443.75;5084545;28;20039;-64
2022/06/25 04:17:11;;;;;;;0.38;0.10;;;;;;;15.55;100.00;98441.91;5055183;28;20040;-64
2022/06/25 04:19:57;;;;;;;1.77;0.17;;;;;;;15.55;100.00;98450.66;5086875;28;20047;-64
2022/06/25 04:22:42;;;;;;;2.30;0.15;;;;;;;15.60;100.00;98463.41;5099775;28;20047;-66
2022/06/25 04:25:28;;;;;;;3.20;0.20;;;;;;;15.69;100.00;98474.91;5086205;28;20104;-64
2022/06/25 04:31:25;;;;;;;2.90;0.30;;;;;;;15.82;100.00;98470.13;5092362;28;20051;-64
2022/06/25 04:34:10;;;;;;;1.63;0.25;;;;;;;15.78;100.00;98466.13;5097244;28;20490;-66
2022/06/25 04:36:55;;;;;;;1.17;0.25;;;;;;;15.86;100.00;98478.59;5099853;28;20501;-65
2022/06/25 04:39:43;;;;;;;0.65;0.10;;;;;;;15.86;100.00;98476.75;5086505;28;20093;-64
2022/06/25 04:42:30;;;;;;;1.67;0.10;;;;;;;15.75;100.00;98476.94;5099290;28;20035;-66
2022/06/25 04:45:14;;;;;;;0.80;0.20;;;;;;;15.69;100.00;98480.19;5080018;28;20032;-64
2022/06/25 04:48:11;;;;;;;0.17;0.00;;;;;;;15.60;100.00;98479.25;5086640;28;20031;-65
2022/06/25 04:51:15;;;;;;;2.70;0.10;;;;;;;15.51;100.00;98481.78;5115136;28;20039;-64
2022/06/25 04:54:03;;;;;;;3.30;0.10;;;;;;;15.42;100.00;98485.28;5102030;28;20089;-65
2022/06/25 04:57:08;;;;;;;0.43;0.10;;;;;;;15.45;100.00;98485.00;5111692;28;20406;-65
2022/06/25 05:00:05;;;;;;;0.30;0.10;;;;;;;15.39;100.00;98482.94;5088876;28;20048;-65
2022/06/25 05:02:53;;;;;;;0.15;0.10;;;;;;;15.41;100.00;98483.59;5062335;28;20074;-65
2022/06/25 05:05:40;;;;;;;0.60;0.03;;;;;;;15.26;100.00;98486.69;5098146;28;20546;-65
2022/06/25 05:08:29;;;;;;;1.08;0.20;;;;;;;15.29;100.00;98485.59;5099109;28;20055;-64
2022/06/25 05:11:14;;;;;;;0.20;0.10;;;;;;;15.24;100.00;98491.28;5103777;28;20059;-65
2022/06/25 05:13:59;;;;;;;0.88;0.10;;;;;;;15.32;100.00;98508.22;5085956;28;20059;-64
2022/06/25 05:16:47;;;;;;;0.28;0.10;;;;;;;15.26;100.00;98517.53;5099971;28;20087;-64
2022/06/25 05:19:31;;;;;;;0.13;0.00;;;;;;;15.27;100.00;98513.94;5101574;28;20036;-64
2022/06/25 05:22:16;;;;;;;1.13;0.15;;;;;;;15.42;100.00;98511.69;5085058;28;20055;-65
2022/06/25 05:25:00;;;;;;;0.88;0.00;;;;;;;15.35;100.00;98506.13;5092989;28;20094;-65
2022/06/25 05:27:46;;;;;;;0.40;0.10;;;;;;;15.31;100.00;98509.22;5083237;28;20042;-66
2022/06/25 05:30:31;;;;;;;0.17;0.00;;;;;;;15.42;100.00;98505.56;5097895;28;20072;-65
2022/06/25 05:33:18;;;;;;;0.30;0.15;;;;;;;15.40;100.00;98505.72;5093624;28;20048;-67
2022/06/25 05:36:04;;;;;;;0.38;0.00;;;;;;;15.36;100.00;98506.94;5083973;28;20055;-64
2022/06/25 05:38:49;;;;;;;1.88;0.00;;;;;;;15.50;100.00;98517.06;5082791;28;20047;-65
2022/06/25 05:41:33;;;;;;;0.00;0.00;;;;;;;15.49;100.00;98523.31;5104236;28;20092;-66
2022/06/25 05:44:18;;;;;;;0.40;0.10;;;;;;;15.62;100.00;98525.66;5113725;28;20390;-64
2022/06/25 05:47:03;;;;;;;0.08;0.03;;;;;;;15.52;100.00;98530.13;5114979;28;20060;-66
2022/06/25 05:49:48;;;;;;;0.40;0.00;;;;;;;15.47;100.00;98533.19;5111915;28;20040;-64
2022/06/25 05:52:32;;;;;;;0.38;0.00;;;;;;;15.57;100.00;98530.53;5110689;28;20036;-65
2022/06/25 05:55:17;;;;;;;0.50;0.00;;;;;;;15.66;100.00;98525.34;5117004;28;20035;-66
2022/06/25 05:58:02;;;;;;;0.17;0.10;;;;;;;15.70;100.00;98532.03;5122004;28;20092;-65
2022/06/25 06:00:48;;;;;;;0.35;0.00;;;;;;;15.77;100.00;98526.03;5110394;28;20039;-65
2022/06/25 06:03:33;;;;;;;0.10;0.00;;;;;;;15.76;100.00;98528.81;5102441;28;20424;-65
2022/06/25 06:06:18;;;;;;;0.70;0.30;;;;;;;15.74;100.00;98530.75;5114399;28;20055;-65
2022/06/25 06:09:03;;;;;;;0.88;0.10;;;;;;;15.78;100.00;98534.78;5093074;28;20036;-65
2022/06/25 06:11:47;;;;;;;0.60;0.20;;;;;;;15.77;100.00;98526.03;5107431;28;20043;-64
2022/06/25 06:14:33;;;;;;;0.10;0.00;;;;;;;15.85;100.00;98525.28;5101894;28;20036;-65
2022/06/25 06:17:17;;;;;;;0.30;0.17;;;;;;;15.82;100.00;98538.78;5098611;28;20043;-65
2022/06/25 06:20:02;;;;;;;1.50;0.17;;;;;;;16.04;100.00;98538.59;5097626;28;20055;-64
2022/06/25 06:22:47;;;;;;;0.50;0.10;;;;;;;16.00;100.00;98538.03;5064272;28;20048;-64
2022/06/25 06:25:32;;;;;;;0.30;0.10;;;;;;;16.03;100.00;98550.97;5092816;28;20371;-64
2022/06/25 06:28:17;;;;;;;0.10;0.10;;;;;;;16.23;100.00;98554.34;5098057;28;20047;-63
2022/06/25 06:31:01;;;;;;;0.00;0.00;;;;;;;16.23;100.00;98557.00;5114326;28;20061;-64
2022/06/25 06:33:46;;;;;;;0.20;0.03;;;;;;;16.29;100.00;98557.41;5101429;28;20475;-64
2022/06/25 06:36:31;;;;;;;0.28;0.03;;;;;;;16.26;100.00;98553.22;5104007;28;20040;-65
2022/06/25 06:39:15;;;;;;;0.70;0.00;;;;;;;16.36;100.00;98561.94;5110463;28;20502;-65
2022/06/25 06:42:00;;;;;;;0.50;0.10;;;;;;;16.48;100.00;98561.72;5113682;28;20036;-64
2022/06/25 06:44:45;;;;;;;1.05;0.20;;;;;;;16.60;100.00;98568.47;5097870;28;20050;-65
2022/06/25 06:47:30;;;;;;;0.60;0.20;;;;;;;16.66;100.00;98563.56;5095753;28;20039;-64
2022/06/25 06:50:14;;;;;;;0.10;0.10;;;;;;;16.68;100.00;98562.41;5112769;28;20473;-64
2022/06/25 06:52:59;;;;;;;1.30;0.10;;;;;;;16.55;100.00;98565.44;5069574;28;20451;-65
2022/06/25 06:55:44;;;;;;;0.20;0.10;;;;;;;16.72;100.00;98579.66;5092016;28;20043;-65
2022/06/25 06:58:30;;;;;;;0.17;0.05;;;;;;;16.75;100.00;98575.88;5096940;28;20038;-65
2022/06/25 07:01:15;;;;;;;1.60;0.00;;;;;;;16.54;100.00;98571.72;5096979;28;20051;-63
2022/06/25 07:04:00;;;;;;;0.13;0.00;;;;;;;16.71;100.00;98578.00;5112436;28;20071;-64
2022/06/25 07:06:45;;;;;;;0.35;0.10;;;;;;;16.75;100.00;98579.38;5111548;28;20059;-65
2022/06/25 07:09:30;;;;;;;0.10;0.10;;;;;;;16.92;100.00;98576.03;5097037;28;20043;-65
2022/06/25 07:12:15;;;;;;;0.30;0.10;;;;;;;16.83;100.00;98575.97;5116617;28;20046;-64
2022/06/25 07:15:00;;;;;;;1.23;0.10;;;;;;;16.83;100.00;98583.91;5104910;28;20043;-64
2022/06/25 07:17:45;;;;;;;0.32;0.05;;;;;;;16.78;100.00;98585.34;5099611;28;20035;-63
2022/06/25 07:20:30;;;;;;;0.10;0.10;;;;;;;16.80;100.00;98591.28;5114488;28;20114;-62
2022/06/25 07:23:17;;;;;;;0.45;0.00;;;;;;;16.85;100.00;98579.31;5115878;28;20039;-64
2022/06/25 07:26:01;;;;;;;0.68;0.10;;;;;;;16.72;100.00;98589.41;5085879;28;20046;-63
2022/06/25 07:28:46;;;;;;;0.73;0.10;;;;;;;16.55;100.00;98586.59;5096983;28;20044;-65
2022/06/25 07:31:31;;;;;;;1.95;0.10;;;;;;;16.39;100.00;98581.94;5097310;28;20063;-64
2022/06/25 07:34:17;;;;;;;0.73;0.30;;;;;;;16.30;100.00;98581.03;5110387;28;20043;-64
2022/06/25 07:37:02;;;;;;;0.93;0.25;;;;;;;16.17;100.00;98583.19;5096828;28;20427;-63
2022/06/25 07:39:47;;;;;;;0.20;0.10;;;;;;;16.18;100.00;98584.81;5097149;28;20400;-64
2022/06/25 07:42:32;;;;;;;2.13;0.20;;;;;;;16.21;100.00;98590.66;5096758;28;20042;-65
2022/06/25 07:45:17;;;;;;;0.30;0.05;;;;;;;16.24;100.00;98594.81;5095786;28;20031;-65
2022/06/25 07:48:02;;;;;;;0.45;0.10;;;;;;;16.47;100.00;98595.25;5095619;28;20110;-64
2022/06/25 07:53:50;;;;;;;0.65;0.10;;;;;;;16.49;100.00;98601.25;5084620;28;20035;-64
2022/06/25 07:56:35;;;;;;;0.40;0.10;;;;;;;16.65;100.00;98610.31;5096471;28;20096;-63
2022/06/25 07:59:19;;;;;;;0.13;0.10;;;;;;;16.76;100.00;98611.94;5096391;28;20067;-64
2022/06/25 08:02:05;;;;;;;0.00;0.00;;;;;;;16.68;100.00;98617.16;5096148;28;20475;-64
2022/06/25 08:04:50;;;;;;;0.13;0.03;;;;;;;16.62;100.00;98623.84;5111501;28;20059;-64
2022/06/25 08:07:36;;;;;;;1.27;0.10;;;;;;;16.69;100.00;98616.16;5083753;28;20493;-63
2022/06/25 08:10:21;;;;;;;0.20;0.10;;;;;;;16.75;100.00;98621.69;5095726;28;20464;-64
2022/06/25 08:13:07;;;;;;;1.13;0.08;;;;;;;16.78;100.00;98628.47;5111427;28;20036;-64
2022/06/25 08:15:52;;;;;;;0.95;0.10;;;;;;;16.79;100.00;98635.44;5111432;28;20039;-64
2022/06/25 08:18:38;;;;;;;0.25;0.03;;;;;;;17.05;100.00;98634.72;5079124;28;20043;-64
2022/06/25 08:21:23;;;;;;;1.40;0.00;;;;;;;16.90;100.00;98637.03;5102871;28;20117;-64
2022/06/25 08:24:08;;;;;;;0.75;0.10;;;;;;;16.86;100.00;98644.44;5111253;28;20027;-65
2022/06/25 08:26:52;;;;;;;0.22;0.20;;;;;;;17.13;100.00;98641.09;5111240;28;20050;-64
2022/06/25 08:29:37;;;;;;;0.47;0.10;;;;;;;17.33;100.00;98639.94;5084896;28;20390;-64
2022/06/25 08:32:22;;;;;;;0.22;0.10;;;;;;;17.43;100.00;98642.50;5095989;28;20483;-64
2022/06/25 08:35:07;;;;;;;0.45;0.20;;;;;;;17.57;100.00;98649.09;5096011;28;20408;-64
2022/06/25 08:37:57;;;;;;;0.30;0.17;;;;;;;17.59;100.00;98643.66;5081732;28;20112;-64
2022/06/25 08:40:42;;;;;;;0.30;0.10;;;;;;;17.57;100.00;98654.41;5080061;28;20048;-64
2022/06/25 08:43:28;;;;;;;0.30;0.00;;;;;;;17.33;100.00;98652.38;5095729;28;20307;-65
2022/06/25 08:46:16;;;;;;;0.88;0.10;;;;;;;17.46;100.00;98650.16;5096013;28;20043;-65
2022/06/25 08:49:02;;;;;;;0.20;0.10;;;;;;;17.38;100.00;98644.81;5111603;28;20031;-65
2022/06/25 08:51:47;;;;;;;0.43;0.20;;;;;;;17.32;100.00;98648.03;5084208;28;20044;-64
2022/06/25 08:54:33;;;;;;;0.30;0.20;;;;;;;17.19;100.00;98648.41;5095796;28;20043;-65
2022/06/25 08:57:19;;;;;;;0.73;0.28;;;;;;;17.10;100.00;98652.81;5096176;28;20048;-65
2022/06/25 09:00:05;;;;;;;2.30;0.13;;;;;;;16.96;100.00;98654.13;5110297;28;20047;-64
2022/06/25 09:02:51;;;;;;;1.08;0.30;;;;;;;17.18;100.00;98654.72;5112434;28;20067;-65
2022/06/25 09:05:37;;;;;;;0.40;0.20;;;;;;;17.17;100.00;98658.34;5105535;28;20050;-64
2022/06/25 09:08:22;;;;;;;0.20;0.20;;;;;;;17.07;100.00;98653.91;5099244;28;20048;-64
2022/06/25 09:11:07;;;;;;;0.60;0.40;;;;;;;16.97;100.00;98650.50;5085126;28;20036;-64
2022/06/25 09:13:52;;;;;;;0.52;0.20;;;;;;;17.08;100.00;98655.63;5098656;28;20069;-63
2022/06/25 09:16:37;;;;;;;0.52;0.30;;;;;;;17.28;100.00;98660.78;5086395;28;20047;-63
2022/06/25 09:19:31;;;;;;;3.10;0.30;;;;;;;17.43;100.00;98652.28;5080829;28;20051;-63
2022/06/25 09:22:21;;;;;;;0.30;0.20;;;;;;;17.59;100.00;98655.06;5114366;28;20218;-63
2022/06/25 09:25:06;;;;;;;0.40;0.28;;;;;;;17.52;100.00;98664.63;5103679;28;20436;-63
2022/06/25 09:27:50;;;;;;;0.20;0.20;;;;;;;17.54;100.00;98667.09;5096390;28;20039;-64
2022/06/25 09:30:38;;;;;;;0.60;0.22;;;;;;;17.74;100.00;98673.03;5122119;28;20038;-64
2022/06/25 09:33:23;;;;;;;2.55;0.30;;;;;;;17.73;100.00;98660.78;5120188;28;20424;-67
2022/06/25 09:36:09;;;;;;;0.85;0.38;;;;;;;17.76;100.00;98670.25;5105300;28;20180;-64
2022/06/25 09:38:54;;;;;;;0.65;0.38;;;;;;;17.82;100.00;98673.09;5121807;28;20035;-64
2022/06/25 09:41:50;;;;;;;0.50;0.30;;;;;;;17.80;100.00;98675.09;5111960;28;20039;-63
2022/06/25 09:44:36;;;;;;;1.02;0.60;;;;;;;18.21;100.00;98668.44;5114679;28;20070;-63
2022/06/25 09:47:21;;;;;;;0.80;0.40;;;;;;;18.26;100.00;98674.09;5096186;28;20066;-62
2022/06/25 09:50:19;;;;;;;0.70;0.40;;;;;;;18.08;100.00;98674.13;5070222;28;20382;-64
2022/06/25 09:53:04;;;;;;;1.30;0.50;;;;;;;17.96;100.00;98673.53;5098951;28;20743;-64
2022/06/25 09:55:49;;;;;;;1.40;0.63;;;;;;;18.10;100.00;98677.41;5087153;28;20528;-64
2022/06/25 09:58:34;;;;;;;1.85;0.50;;;;;;;18.19;100.00;98665.09;5098487;28;20039;-65
2022/06/25 10:01:23;;;;;;;1.00;0.50;;;;;;;18.20;100.00;98677.34;5113965;28;20036;-63
2022/06/25 10:04:09;;;;;;;0.55;0.50;;;;;;;18.03;100.00;98673.75;5084632;28;20035;-64
2022/06/25 10:06:55;;;;;;;1.38;0.70;;;;;;;18.28;100.00;98671.28;5099370;28;20383;-63
2022/06/25 10:09:42;;;;;;;0.77;0.50;;;;;;;18.38;100.00;98668.53;5098120;28;20104;-65
2022/06/25 10:12:27;;;;;;;0.63;0.50;;;;;;;18.62;100.00;98672.25;5082947;28;20092;-65
2022/06/25 10:15:17;;;;;;;0.95;0.60;;;;;;;18.88;100.00;98661.56;5081682;28;20039;-65
2022/06/25 10:18:06;;;;;;;1.00;0.45;;;;;;;19.23;100.00;98661.50;5101427;28;20046;-65
2022/06/25 10:20:51;;;;;;;0.70;0.50;;;;;;;19.57;99.02;98657.84;5081606;28;20052;-65
2022/06/25 10:23:38;;;;;;;0.85;0.52;;;;;;;19.42;97.80;98655.03;5098295;28;20042;-64
2022/06/25 10:26:24;;;;;;;2.55;0.50;;;;;;;19.38;97.97;98663.50;5113337;28;20059;-65
2022/06/25 10:29:30;;;;;;;2.40;0.47;;;;;;;19.35;97.47;98659.34;5113204;28;20039;-66
2022/06/25 10:32:17;;;;;;;0.52;0.50;;;;;;;19.31;97.85;98663.31;5098214;28;20044;-63
2022/06/25 10:35:03;;;;;;;0.98;0.50;;;;;;;19.43;97.83;98655.88;5102027;28;20047;-64
2022/06/25 10:37:59;;;;;;;0.60;0.40;;;;;;;19.36;95.98;98657.50;5080516;28;20039;-65
2022/06/25 10:40:58;;;;;;;1.40;0.50;;;;;;;19.24;97.12;98652.56;5098177;28;20048;-64
2022/06/25 10:43:54;;;;;;;1.17;0.80;;;;;;;19.26;95.68;98647.88;5056709;28;20134;-65
2022/06/25 10:46:41;;;;;;;1.00;0.57;;;;;;;19.40;96.11;98653.53;5098707;28;20052;-65
2022/06/25 10:49:30;;;;;;;1.00;0.50;;;;;;;19.54;95.29;98644.91;5112874;28;20074;-64
2022/06/25 10:52:16;;;;;;;0.82;0.68;;;;;;;19.69;94.61;98647.72;5103448;28;20052;-65
2022/06/25 10:55:03;;;;;;;0.60;0.40;;;;;;;19.91;93.55;98645.34;5078786;28;20044;-64
2022/06/25 10:57:49;;;;;;;0.73;0.43;;;;;;;19.79;94.12;98642.25;5077293;28;20028;-64
2022/06/25 11:00:52;;;;;;;0.60;0.47;;;;;;;20.04;92.31;98636.09;5111321;28;20402;-65
2022/06/25 11:03:37;;;;;;;0.88;0.52;;;;;;;20.10;90.25;98634.56;5096824;28;20107;-64
2022/06/25 11:06:32;;;;;;;1.13;0.52;;;;;;;20.08;90.43;98633.88;5113070;28;20031;-65
2022/06/25 11:09:16;;;;;;;0.90;0.60;;;;;;;20.17;91.68;98630.22;5099988;28;20044;-66
2022/06/25 11:12:02;;;;;;;0.75;0.50;;;;;;;20.27;90.68;98624.72;5096935;28;20036;-66
2022/06/25 11:15:07;;;;;;;0.70;0.55;;;;;;;20.37;89.45;98629.84;5097631;28;20058;-65
2022/06/25 11:17:51;;;;;;;1.20;0.50;;;;;;;20.31;90.69;98634.00;5099100;28;20039;-64
2022/06/25 11:20:37;;;;;;;0.68;0.50;;;;;;;20.26;91.73;98629.19;5098274;28;20424;-66
2022/06/25 11:23:25;;;;;;;5.05;0.60;;;;;;;20.12;92.35;98629.91;5112907;28;20050;-65
2022/06/25 11:29:19;;;;;;;0.68;0.63;;;;;;;20.50;90.06;98629.28;5099724;28;20036;-64
2022/06/25 11:32:07;;;;;;;0.90;0.60;;;;;;;20.25;91.33;98629.38;5068916;28;20048;-64
2022/06/25 11:34:54;;;;;;;1.02;0.73;;;;;;;20.34;91.14;98628.31;5063878;28;20474;-65
2022/06/25 11:37:38;;;;;;;1.48;0.70;;;;;;;20.54;88.34;98636.72;5095298;28;20032;-64
2022/06/25 11:40:23;;;;;;;0.90;0.50;;;;;;;21.02;88.16;98625.16;5097936;28;20044;-64
2022/06/25 11:43:08;;;;;;;1.10;0.80;;;;;;;20.79;87.32;98627.78;5082935;28;20067;-64
2022/06/25 11:45:56;;;;;;;1.10;0.50;;;;;;;20.78;88.60;98626.97;5112417;28;20437;-67
2022/06/25 11:48:41;;;;;;;1.20;0.70;;;;;;;20.98;87.58;98629.19;5096853;28;20063;-65
2022/06/25 11:51:26;;;;;;;0.93;0.57;;;;;;;21.34;89.02;98627.78;5111823;28;20047;-64
2022/06/25 11:54:11;;;;;;;2.70;0.70;;;;;;;21.11;87.73;98615.31;5111349;28;20043;-64
2022/06/25 11:56:56;;;;;;;1.55;0.50;;;;;;;21.29;86.23;98612.34;5111913;28;20035;-65
2022/06/25 11:59:41;;;;;;;0.93;0.50;;;;;;;21.67;86.34;98624.00;5111412;28;20051;-64
2022/06/25 12:02:26;;;;;;;1.13;0.60;;;;;;;21.89;86.57;98616.16;5098783;28;20027;-66
2022/06/25 12:05:11;;;;;;;1.65;0.43;;;;;;;21.80;82.44;98603.91;5109779;28;20122;-65
2022/06/25 12:07:57;;;;;;;0.52;0.40;;;;;;;22.06;82.04;98615.97;5086329;28;20027;-65
2022/06/25 12:10:42;;;;;;;0.32;0.30;;;;;;;21.84;82.08;98611.38;5110715;28;20075;-65
2022/06/25 12:13:30;;;;;;;0.40;0.30;;;;;;;22.05;82.62;98603.66;5096473;28;20051;-65
2022/06/25 12:16:15;;;;;;;1.00;0.50;;;;;;;21.86;82.30;98608.50;5063936;28;20046;-65
2022/06/25 12:19:00;;;;;;;1.17;0.47;;;;;;;22.25;81.17;98602.09;5064789;28;20032;-66
2022/06/25 12:21:45;;;;;;;2.58;0.43;;;;;;;22.31;78.79;98600.50;5096138;28;20110;-64
2022/06/25 12:24:30;;;;;;;0.80;0.40;;;;;;;22.49;77.96;98605.44;5110287;28;20043;-64
2022/06/25 12:27:15;;;;;;;0.63;0.40;;;;;;;22.94;75.91;98603.69;5082103;28;20050;-64
2022/06/25 12:30:00;;;;;;;0.30;0.28;;;;;;;22.57;73.94;98598.34;5089389;28;20096;-64
2022/06/25 12:32:44;;;;;;;2.90;0.47;;;;;;;22.58;75.17;98602.66;5096901;28;20032;-65
2022/06/25 12:35:30;;;;;;;2.70;0.63;;;;;;;23.11;72.60;98593.59;5095745;28;20466;-66
2022/06/25 12:38:15;;;;;;;0.63;0.40;;;;;;;23.36;73.83;98590.50;5113306;28;20040;-65
2022/06/25 12:41:00;;;;;;;0.40;0.30;;;;;;;23.62;71.32;98591.75;5100232;28;20478;-64
2022/06/25 12:43:46;;;;;;;0.77;0.40;;;;;;;23.71;72.30;98590.63;5115895;28;20450;-64
2022/06/25 12:46:31;;;;;;;0.70;0.43;;;;;;;23.56;68.93;98590.72;5087374;28;20032;-65
2022/06/25 12:49:15;;;;;;;0.60;0.30;;;;;;;23.33;71.53;98593.56;5100131;28;20431;-65
2022/06/25 12:52:00;;;;;;;0.43;0.35;;;;;;;24.38;66.15;98585.81;5099377;28;20047;-64
2022/06/25 12:54:53;;;;;;;0.75;0.30;;;;;;;24.35;66.30;98587.06;5115918;28;20070;-65
2022/06/25 12:57:38;;;;;;;0.63;0.30;;;;;;;23.62;67.37;98594.44;5105297;28;20031;-66
2022/06/25 13:00:25;;;;;;;0.90;0.40;;;;;;;23.53;69.14;98591.09;5126334;28;20036;-66
2022/06/25 13:03:11;;;;;;;2.28;0.40;;;;;;;23.44;68.41;98585.06;5121039;28;20382;-66
2022/06/25 13:05:55;;;;;;;0.60;0.50;;;;;;;23.71;68.92;98587.94;5090984;28;20063;-66
2022/06/25 13:08:40;;;;;;;0.32;0.30;;;;;;;23.83;68.16;98595.38;5111829;28;20072;-65
2022/06/25 13:11:26;;;;;;;0.82;0.30;;;;;;;23.84;67.60;98592.53;5125744;28;20059;-65
2022/06/25 13:14:12;;;;;;;0.28;0.20;;;;;;;24.32;66.63;98577.56;5115455;28;20039;-66